Gold Bridge, Canada
Current Conditions -  °F | °C
As of 4:00 PM on Friday 19 Dec 2014 (Local Time) from CWAE Reporting Station
Light Rain Light Rain  
Wind Chill: 36°   Ceiling: 4500
Heat Index: 36°   Visibility: 15mi
Dew Point: 34°   Wind: 2mph
Humidity: 93%   Direction: 140°SE
Pressure: 29.83"   Gusts: NA
Location:  50.85°N, 122.85°W
Report Text: CWAE 200000Z 14002KT 15SM -RA BKN045 OVC055 02/01 A2983 RMK SC7SC1 WND ESTD SLP118
Loading
Personal Weather Stations






























Interactive Weather Map New forecast layout! Learn more

10-Day Weather Forecast

Advertisements
Track Severe Weather on mobile